createdAt,value
2023-05-21T00:05:53.578Z,91.90
2023-05-21T00:08:20.949Z,92.73
2023-05-21T00:10:47.758Z,95.67
2023-05-21T00:13:33.844Z,97.50
2023-05-21T00:16:00.879Z,96.49
2023-05-21T00:18:27.690Z,97.86
2023-05-21T00:20:54.844Z,96.82
2023-05-21T00:23:21.687Z,96.57
2023-05-21T00:25:48.501Z,96.56
2023-05-21T00:28:15.767Z,96.98
2023-05-21T00:30:43.265Z,95.58
2023-05-21T00:33:10.704Z,95.21
2023-05-21T00:35:37.836Z,94.32
2023-05-21T00:38:04.749Z,95.27
2023-05-21T00:40:31.698Z,95.05
2023-05-21T00:42:58.743Z,96.86
2023-05-21T00:45:25.699Z,98.11
2023-05-21T00:47:55.033Z,98.85
2023-05-21T00:50:23.393Z,100.00
2023-05-21T00:52:50.711Z,100.00
2023-05-21T00:55:17.612Z,100.00
2023-05-21T00:57:46.106Z,100.00
2023-05-21T01:00:14.980Z,100.00
2023-05-21T01:02:42.403Z,100.00
2023-05-21T01:05:10.764Z,100.00
2023-05-21T01:07:41.619Z,100.00
2023-05-21T01:10:11.495Z,100.00
2023-05-21T01:12:40.160Z,100.00
2023-05-21T01:15:07.773Z,100.00
2023-05-21T01:17:35.962Z,100.00
2023-05-21T01:20:12.832Z,100.00
2023-05-21T01:22:49.573Z,100.00
2023-05-21T01:25:16.460Z,100.00
2023-05-21T01:27:43.355Z,100.00
2023-05-21T01:30:11.073Z,100.00
2023-05-21T01:32:59.260Z,100.00
2023-05-21T01:35:34.995Z,100.00
2023-05-21T01:38:02.354Z,100.00
2023-05-21T01:40:39.873Z,100.00
2023-05-21T01:43:08.394Z,100.00
2023-05-21T01:45:39.756Z,100.00
2023-05-21T01:48:08.233Z,100.00
2023-05-21T01:50:37.507Z,100.00
2023-05-21T01:53:06.104Z,100.00
2023-05-21T01:55:33.548Z,100.00
2023-05-21T01:58:02.535Z,100.00
2023-05-21T02:00:29.750Z,100.00
2023-05-21T02:02:56.995Z,100.00
2023-05-21T02:05:24.367Z,100.00
2023-05-21T02:07:52.875Z,100.00
2023-05-21T02:10:20.278Z,100.00
2023-05-21T02:12:47.172Z,100.00
2023-05-21T02:15:18.245Z,100.00
2023-05-21T02:17:48.273Z,100.00
2023-05-21T02:20:15.735Z,100.00
2023-05-21T02:22:45.127Z,100.00
2023-05-21T02:25:13.811Z,100.00
2023-05-21T02:27:42.689Z,100.00
2023-05-21T02:30:15.100Z,100.00
2023-05-21T02:32:44.114Z,100.00
2023-05-21T02:35:13.352Z,100.00
2023-05-21T02:37:41.224Z,100.00
2023-05-21T02:40:10.329Z,100.00
2023-05-21T02:42:39.775Z,100.00
2023-05-21T02:45:08.749Z,100.00
2023-05-21T02:47:35.811Z,100.00
2023-05-21T02:50:02.791Z,100.00
2023-05-21T02:52:29.741Z,100.00
2023-05-21T02:54:56.501Z,100.00
2023-05-21T02:57:23.445Z,100.00
2023-05-21T02:59:53.177Z,100.00
2023-05-21T03:02:20.311Z,100.00
2023-05-21T03:04:49.167Z,100.00
2023-05-21T03:07:19.289Z,100.00
2023-05-21T03:09:46.664Z,100.00
2023-05-21T03:12:13.909Z,100.00
2023-05-21T03:14:42.994Z,100.00
2023-05-21T03:17:14.235Z,100.00
2023-05-21T03:19:42.167Z,100.00
2023-05-21T03:22:09.666Z,100.00
2023-05-21T03:24:36.964Z,100.00
2023-05-21T03:27:06.610Z,100.00
2023-05-21T03:29:34.413Z,100.00
2023-05-21T03:32:02.543Z,100.00
2023-05-21T03:34:29.742Z,100.00
2023-05-21T03:36:56.730Z,100.00
2023-05-21T03:39:23.678Z,100.00
2023-05-21T03:41:50.817Z,100.00
2023-05-21T03:44:17.887Z,100.00
2023-05-21T03:46:45.867Z,100.00
2023-05-21T03:49:12.856Z,100.00
2023-05-21T03:51:39.788Z,100.00
2023-05-21T03:54:06.702Z,100.00
2023-05-21T03:56:34.122Z,100.00
2023-05-21T03:59:01.610Z,100.00
2023-05-21T04:01:28.577Z,100.00
2023-05-21T04:03:55.990Z,100.00
2023-05-21T04:06:23.290Z,100.00
2023-05-21T04:08:50.518Z,100.00
2023-05-21T04:11:17.495Z,100.00
2023-05-21T04:13:44.386Z,100.00
2023-05-21T04:16:14.754Z,100.00
2023-05-21T04:18:43.565Z,100.00
2023-05-21T04:21:12.594Z,100.00
2023-05-21T04:23:39.685Z,99.05
2023-05-21T04:26:07.733Z,94.69
2023-05-21T04:28:35.669Z,91.46
2023-05-21T04:31:02.967Z,94.75
2023-05-21T04:33:30.522Z,95.40
2023-05-21T04:35:58.126Z,89.65
2023-05-21T04:38:26.104Z,83.57
2023-05-21T04:40:54.037Z,81.77
2023-05-21T04:43:27.292Z,81.43
2023-05-21T04:45:57.445Z,86.47
2023-05-21T04:48:25.892Z,91.66
2023-05-21T04:50:53.912Z,94.39
2023-05-21T04:53:21.011Z,94.69
2023-05-21T04:55:48.263Z,93.82
2023-05-21T04:58:18.311Z,90.31
2023-05-21T05:00:51.270Z,90.66
2023-05-21T05:03:18.331Z,90.13
2023-05-21T05:05:46.072Z,87.83
2023-05-21T05:08:15.560Z,89.97
2023-05-21T05:10:42.915Z,91.71
2023-05-21T05:13:10.111Z,96.35
2023-05-21T05:15:37.243Z,93.15
2023-05-21T05:18:04.491Z,92.58
2023-05-21T05:20:31.474Z,91.35
2023-05-21T05:22:58.219Z,94.26
2023-05-21T05:25:25.219Z,90.81
2023-05-21T05:27:52.303Z,91.76
2023-05-21T05:30:19.378Z,92.70
2023-05-21T05:32:46.950Z,94.51
2023-05-21T05:35:16.660Z,88.34
2023-05-21T05:37:43.564Z,87.73
2023-05-21T05:40:11.196Z,89.39
2023-05-21T05:42:41.370Z,88.99
2023-05-21T05:45:09.440Z,87.78
2023-05-21T05:47:39.753Z,78.31
2023-05-21T05:50:10.591Z,74.76
2023-05-21T05:52:37.664Z,73.45
2023-05-21T05:55:04.923Z,69.54
2023-05-21T05:57:32.195Z,68.23
2023-05-21T05:59:59.050Z,66.31
2023-05-21T06:02:26.268Z,70.18
2023-05-21T06:04:53.451Z,69.20
2023-05-21T06:07:23.354Z,68.49
2023-05-21T06:09:53.069Z,67.60
2023-05-21T06:12:20.309Z,65.02
2023-05-21T06:14:49.402Z,63.12
2023-05-21T06:17:16.410Z,60.76
2023-05-21T06:19:45.369Z,63.95
2023-05-21T06:22:12.454Z,63.86
2023-05-21T06:24:39.472Z,63.33
2023-05-21T06:27:06.781Z,63.52
2023-05-21T06:29:33.791Z,62.29
2023-05-21T06:32:00.723Z,62.24
2023-05-21T06:34:29.004Z,63.71
2023-05-21T06:36:56.304Z,61.50
2023-05-21T06:39:24.807Z,61.12
2023-05-21T06:41:51.887Z,61.97
2023-05-21T06:44:18.918Z,61.56
2023-05-21T06:46:48.922Z,60.94
2023-05-21T06:49:16.516Z,59.22
2023-05-21T06:51:44.319Z,59.30
2023-05-21T06:54:11.241Z,57.41
2023-05-21T06:56:38.461Z,56.50
2023-05-21T06:59:05.495Z,54.14
2023-05-21T07:01:32.894Z,53.31
2023-05-21T07:04:00.281Z,55.01
2023-05-21T07:06:29.633Z,56.73
2023-05-21T07:08:56.635Z,54.99
2023-05-21T07:11:25.618Z,54.82
2023-05-21T07:13:53.066Z,53.56
2023-05-21T07:16:20.311Z,56.28
2023-05-21T07:18:47.893Z,54.43
2023-05-21T07:21:33.392Z,54.17
2023-05-21T07:24:01.056Z,53.00
2023-05-21T07:26:27.927Z,51.82
2023-05-21T07:28:55.075Z,51.34
2023-05-21T07:31:22.145Z,51.70
2023-05-21T07:33:49.208Z,52.56
2023-05-21T07:36:16.471Z,53.37
2023-05-21T07:38:44.594Z,50.53
2023-05-21T07:41:11.485Z,49.10
2023-05-21T07:43:39.225Z,48.34
2023-05-21T07:46:06.361Z,48.99
2023-05-21T07:48:35.423Z,48.78
2023-05-21T07:51:04.161Z,47.52
2023-05-21T07:53:32.742Z,47.18
2023-05-21T07:56:00.470Z,47.31
2023-05-21T07:58:27.443Z,45.64
2023-05-21T08:00:54.489Z,46.16
2023-05-21T08:03:21.653Z,46.89
2023-05-21T08:05:49.512Z,47.45
2023-05-21T08:08:20.338Z,47.68
2023-05-21T08:10:50.378Z,47.73
2023-05-21T08:13:19.050Z,46.61
2023-05-21T08:15:46.290Z,47.37
2023-05-21T08:18:13.343Z,46.43
2023-05-21T08:20:41.298Z,48.58
2023-05-21T08:23:08.489Z,50.41
2023-05-21T08:25:35.724Z,46.19
2023-05-21T08:28:02.821Z,45.33
2023-05-21T08:30:30.009Z,43.27
2023-05-21T08:32:58.576Z,44.25
2023-05-21T08:35:25.861Z,44.54
2023-05-21T08:37:53.152Z,43.20
2023-05-21T08:40:22.631Z,44.53
2023-05-21T08:42:50.181Z,44.84
2023-05-21T08:45:24.132Z,43.61
2023-05-21T08:47:58.740Z,43.72
2023-05-21T08:50:28.282Z,43.23
2023-05-21T08:52:55.807Z,43.73
2023-05-21T08:55:23.878Z,43.91
2023-05-21T08:57:51.268Z,44.24
2023-05-21T09:00:18.468Z,43.66
2023-05-21T09:02:46.809Z,42.21
2023-05-21T09:05:15.364Z,44.81
2023-05-21T09:08:03.429Z,44.54
2023-05-21T09:10:37.955Z,44.21
2023-05-21T09:13:05.544Z,43.34
2023-05-21T09:15:39.252Z,41.53
2023-05-21T09:18:06.142Z,40.22
2023-05-21T09:20:33.024Z,38.76
2023-05-21T09:23:05.158Z,35.57
2023-05-21T09:25:32.990Z,36.35
2023-05-21T09:28:02.345Z,36.30
2023-05-21T09:30:35.693Z,37.93
2023-05-21T09:33:04.314Z,38.94
2023-05-21T09:35:32.299Z,39.03
2023-05-21T09:37:59.225Z,38.36
2023-05-21T09:40:26.671Z,39.17
2023-05-21T09:42:55.233Z,40.68
2023-05-21T09:45:24.073Z,40.93
2023-05-21T09:47:52.404Z,40.66
2023-05-21T09:50:28.375Z,41.40
2023-05-21T09:52:55.841Z,41.35
2023-05-21T09:55:23.686Z,41.56
2023-05-21T09:57:52.376Z,41.83
2023-05-21T10:00:20.313Z,41.26
2023-05-21T10:02:48.887Z,40.86
2023-05-21T10:05:19.445Z,40.96
2023-05-21T10:07:54.597Z,41.10
2023-05-21T10:10:23.078Z,40.10
2023-05-21T10:13:00.841Z,40.12
2023-05-21T10:15:32.415Z,39.49
2023-05-21T10:18:00.470Z,40.52
2023-05-21T10:20:27.714Z,40.93
2023-05-21T10:22:55.632Z,40.44
2023-05-21T10:25:23.892Z,40.57
2023-05-21T10:27:50.985Z,40.36
2023-05-21T10:30:21.272Z,40.54
2023-05-21T10:32:49.248Z,40.94
2023-05-21T10:35:19.868Z,40.87
2023-05-21T10:37:47.472Z,40.03
2023-05-21T10:40:14.851Z,40.27
2023-05-21T10:43:03.767Z,40.38
2023-05-21T10:45:53.536Z,41.07
2023-05-21T10:48:43.971Z,41.39
2023-05-21T10:51:15.797Z,41.57
2023-05-21T10:54:18.853Z,41.31
2023-05-21T10:57:07.150Z,41.16
2023-05-21T10:59:33.825Z,42.25
2023-05-21T11:02:01.879Z,41.92
2023-05-21T11:04:29.557Z,41.46
2023-05-21T11:06:59.273Z,42.15
2023-05-21T11:09:27.247Z,42.14
2023-05-21T11:11:58.275Z,42.24
2023-05-21T11:14:42.235Z,42.88
2023-05-21T11:17:43.306Z,43.27
2023-05-21T11:20:17.423Z,42.74
2023-05-21T11:22:46.783Z,43.63
2023-05-21T11:25:15.643Z,44.73
2023-05-21T11:27:42.760Z,45.59
2023-05-21T11:30:17.645Z,46.03
2023-05-21T11:33:12.591Z,44.56
2023-05-21T11:36:02.417Z,43.44
2023-05-21T11:38:40.382Z,42.89
2023-05-21T11:41:09.482Z,42.02
2023-05-21T11:43:40.911Z,42.00
2023-05-21T11:46:10.477Z,42.32
2023-05-21T11:48:39.179Z,40.84
2023-05-21T11:51:06.291Z,40.76
2023-05-21T11:53:39.056Z,41.35
2023-05-21T11:56:09.939Z,42.54
2023-05-21T11:58:36.899Z,44.37
2023-05-21T12:01:03.880Z,45.77
2023-05-21T12:03:35.282Z,46.76
2023-05-21T12:06:06.830Z,48.05
2023-05-21T12:08:33.755Z,47.59
2023-05-21T12:11:02.060Z,45.82
2023-05-21T12:13:29.816Z,45.55
2023-05-21T12:15:56.804Z,43.50
2023-05-21T12:18:23.682Z,41.41
2023-05-21T12:20:52.428Z,41.23
2023-05-21T12:23:23.530Z,42.38
2023-05-21T12:25:51.588Z,40.62
2023-05-21T12:28:18.515Z,40.72
2023-05-21T12:30:45.739Z,41.06
2023-05-21T12:33:14.247Z,41.41
2023-05-21T12:35:41.444Z,41.69
2023-05-21T12:38:09.810Z,41.24
2023-05-21T12:40:39.024Z,41.75
2023-05-21T12:43:07.022Z,42.21
2023-05-21T12:45:34.183Z,42.12
2023-05-21T12:48:04.000Z,42.35
2023-05-21T12:50:31.179Z,42.41
2023-05-21T12:52:58.905Z,42.17
2023-05-21T12:55:28.753Z,42.05
2023-05-21T12:58:08.447Z,41.75
2023-05-21T13:00:36.349Z,41.59
2023-05-21T13:03:06.642Z,39.77
2023-05-21T13:05:34.261Z,40.69
2023-05-21T13:08:01.303Z,40.69
2023-05-21T13:10:28.172Z,40.66
2023-05-21T13:12:55.136Z,40.60
2023-05-21T13:15:21.872Z,41.71
2023-05-21T13:17:50.462Z,41.89
2023-05-21T13:20:26.639Z,41.57
2023-05-21T13:22:54.134Z,41.75
2023-05-21T13:25:24.813Z,41.47
2023-05-21T13:27:53.295Z,41.85
2023-05-21T13:30:21.133Z,40.96
2023-05-21T13:32:49.038Z,41.11
2023-05-21T13:35:16.993Z,41.29
2023-05-21T13:37:45.157Z,41.40
2023-05-21T13:40:17.043Z,41.68
2023-05-21T13:42:45.742Z,41.18
2023-05-21T13:45:15.096Z,40.65
2023-05-21T13:47:43.248Z,40.54
2023-05-21T13:50:13.542Z,40.68
2023-05-21T13:52:41.103Z,40.84
2023-05-21T13:55:08.662Z,39.99
2023-05-21T13:57:35.540Z,40.36
2023-05-21T14:00:05.072Z,41.30
2023-05-21T14:02:31.955Z,41.44
2023-05-21T14:04:59.211Z,42.07
2023-05-21T14:07:26.692Z,42.00
2023-05-21T14:09:53.610Z,42.20
2023-05-21T14:12:20.924Z,42.56
2023-05-21T14:14:50.166Z,42.61
2023-05-21T14:17:17.076Z,43.11
2023-05-21T14:19:45.280Z,42.40
2023-05-21T14:22:12.334Z,42.69
2023-05-21T14:24:39.097Z,43.09
2023-05-21T14:27:06.264Z,44.21
2023-05-21T14:29:33.625Z,44.25
2023-05-21T14:32:05.734Z,44.54
2023-05-21T14:34:33.568Z,44.10
2023-05-21T14:37:00.458Z,44.17
2023-05-21T14:39:27.302Z,44.25
2023-05-21T14:41:54.223Z,45.62
2023-05-21T14:44:21.265Z,45.22
2023-05-21T14:47:06.793Z,45.79
2023-05-21T14:49:33.792Z,45.21
2023-05-21T14:52:00.722Z,45.89
2023-05-21T14:54:27.510Z,45.90
2023-05-21T14:56:54.722Z,46.06
2023-05-21T14:59:21.584Z,46.19
2023-05-21T15:02:21.235Z,46.90
2023-05-21T15:04:48.396Z,46.75
2023-05-21T15:07:15.791Z,46.80
2023-05-21T15:23:32.539Z,47.05
2023-05-21T15:26:04.888Z,47.53
2023-05-21T15:28:32.492Z,47.94
2023-05-21T15:30:59.406Z,47.95
2023-05-21T15:33:28.748Z,48.04
2023-05-21T15:35:59.953Z,48.48
2023-05-21T15:38:29.876Z,49.10
2023-05-21T15:41:00.321Z,49.13
2023-05-21T15:43:27.138Z,49.01
2023-05-21T15:48:38.084Z,49.83
2023-05-21T15:51:08.616Z,49.76
2023-05-21T15:53:36.915Z,49.83
2023-05-21T15:56:04.052Z,49.95
2023-05-21T15:58:31.634Z,50.19
2023-05-21T16:37:55.260Z,51.25
2023-05-21T16:40:22.134Z,51.11
2023-05-21T16:42:48.983Z,50.82
2023-05-21T16:45:20.802Z,50.76
2023-05-21T16:47:48.889Z,50.61
2023-05-21T16:50:16.461Z,51.00
2023-05-21T16:52:43.583Z,50.55
2023-05-21T16:55:11.377Z,50.70
2023-05-21T16:57:38.379Z,50.59
2023-05-21T17:00:05.894Z,50.71
2023-05-21T17:02:32.954Z,50.02
2023-05-21T17:07:41.099Z,49.81
2023-05-21T17:10:08.502Z,50.71
2023-05-21T17:12:35.692Z,50.56
2023-05-21T17:15:07.712Z,50.44
2023-05-21T17:17:37.406Z,50.44
2023-05-21T17:20:04.499Z,51.90
2023-05-21T17:22:31.777Z,51.92
2023-05-21T17:25:00.311Z,51.70
2023-05-21T17:27:27.264Z,52.46
2023-05-21T17:29:54.469Z,53.45
2023-05-21T17:32:21.418Z,53.23
2023-05-21T17:34:53.245Z,53.91
2023-05-21T17:37:23.504Z,55.07
2023-05-21T17:39:54.316Z,55.62
2023-05-21T17:42:25.710Z,55.36
2023-05-21T17:44:54.041Z,54.50
2023-05-21T17:47:20.907Z,55.75
2023-05-21T17:49:47.906Z,57.04
2023-05-21T17:52:14.694Z,57.03
2023-05-21T17:54:41.648Z,56.42
2023-05-21T17:57:08.842Z,55.88
2023-05-21T17:59:35.939Z,55.54
2023-05-21T18:02:03.083Z,55.54
2023-05-21T18:04:30.317Z,56.61
2023-05-21T18:06:57.380Z,55.89
2023-05-21T18:09:26.773Z,56.01
2023-05-21T18:11:53.734Z,56.16
2023-05-21T18:14:20.698Z,57.77
2023-05-21T18:16:47.487Z,59.02
2023-05-21T18:19:14.648Z,59.25
2023-05-21T18:21:41.691Z,62.26
2023-05-21T18:24:09.387Z,62.64
2023-05-21T18:26:36.766Z,64.18
2023-05-21T18:29:05.736Z,65.45
2023-05-21T18:31:32.639Z,66.26
2023-05-21T18:33:59.646Z,66.73
2023-05-21T18:36:26.798Z,66.87
2023-05-21T18:38:53.689Z,66.43
2023-05-21T18:41:22.965Z,67.66
2023-05-21T18:43:49.813Z,68.75
2023-05-21T18:46:16.783Z,68.54
2023-05-21T18:48:44.110Z,68.78
2023-05-21T18:51:11.022Z,70.47
2023-05-21T18:53:38.833Z,71.71
2023-05-21T18:56:07.180Z,72.39
2023-05-21T18:58:34.114Z,74.16
2023-05-21T19:01:01.162Z,74.08
2023-05-21T19:03:29.371Z,73.88
2023-05-21T19:05:56.393Z,74.23
2023-05-21T19:08:23.466Z,75.51
2023-05-21T19:10:50.747Z,77.01
2023-05-21T19:13:17.678Z,77.06
2023-05-21T19:15:47.265Z,78.66
2023-05-21T19:18:14.558Z,78.90
2023-05-21T19:20:41.548Z,78.88
2023-05-21T19:23:08.601Z,80.54
2023-05-21T19:25:35.379Z,82.18
2023-05-21T19:28:05.418Z,82.24
2023-05-21T19:30:36.821Z,82.34
2023-05-21T19:33:04.029Z,81.01
2023-05-21T19:35:31.087Z,79.46
2023-05-21T19:38:00.225Z,78.33
2023-05-21T19:40:28.104Z,78.58
2023-05-21T19:42:54.851Z,80.62
2023-05-21T19:45:21.888Z,80.03
2023-05-21T19:47:48.900Z,78.42
2023-05-21T19:50:15.723Z,77.27
2023-05-21T19:52:42.522Z,76.47
2023-05-21T19:55:10.381Z,75.94
2023-05-21T19:57:37.535Z,75.95
2023-05-21T20:00:05.668Z,74.17
2023-05-21T20:02:34.840Z,73.92
2023-05-21T20:05:02.000Z,74.53
2023-05-21T20:07:28.913Z,74.08
2023-05-21T20:09:56.682Z,73.56
2023-05-21T20:12:23.439Z,73.61
2023-05-21T20:14:54.344Z,73.39
2023-05-21T20:17:21.253Z,75.27
2023-05-21T20:19:48.291Z,75.92
2023-05-21T20:22:16.118Z,78.95
2023-05-21T20:24:43.782Z,80.80
2023-05-21T20:27:10.824Z,79.96
2023-05-21T20:29:37.748Z,79.53
2023-05-21T20:32:05.194Z,78.21
2023-05-21T20:34:32.075Z,75.11
2023-05-21T20:36:58.887Z,74.16
2023-05-21T20:39:27.860Z,75.36
2023-05-21T20:41:56.192Z,75.50
2023-05-21T20:44:23.101Z,75.00
2023-05-21T20:46:51.322Z,75.99
2023-05-21T20:49:25.085Z,77.63
2023-05-21T20:51:52.026Z,79.15
2023-05-21T20:54:18.853Z,79.04
2023-05-21T20:56:45.806Z,78.17
2023-05-21T20:59:12.737Z,77.74
2023-05-21T21:01:40.923Z,76.49
2023-05-21T21:04:08.555Z,76.46
2023-05-21T21:06:38.637Z,77.39
2023-05-21T21:09:05.473Z,78.72
2023-05-21T21:11:32.582Z,81.31
2023-05-21T21:13:59.627Z,83.17
2023-05-21T21:16:26.551Z,83.31
2023-05-21T21:18:53.771Z,82.63
2023-05-21T21:21:20.744Z,83.12
2023-05-21T21:23:47.565Z,82.52
2023-05-21T21:26:14.538Z,81.64
2023-05-21T21:28:41.433Z,80.63
2023-05-21T21:31:08.305Z,79.37
2023-05-21T21:33:35.278Z,79.44
2023-05-21T21:36:02.381Z,80.20
2023-05-21T21:38:29.300Z,80.63
2023-05-21T21:40:56.287Z,80.62
2023-05-21T21:43:23.682Z,81.17
2023-05-21T21:45:51.525Z,81.02
2023-05-21T21:48:18.554Z,80.64
2023-05-21T21:50:45.998Z,79.65
2023-05-21T21:53:14.155Z,79.86
2023-05-21T21:55:41.094Z,77.95
2023-05-21T21:58:08.230Z,77.48
2023-05-21T22:00:35.013Z,77.35
2023-05-21T22:03:01.997Z,79.01
2023-05-21T22:05:31.085Z,76.74
2023-05-21T22:07:57.911Z,77.82
2023-05-21T22:10:24.813Z,76.82
2023-05-21T22:12:51.853Z,77.70
2023-05-21T22:15:28.807Z,81.99
2023-05-21T22:17:56.113Z,83.67
2023-05-21T22:20:23.098Z,85.16
2023-05-21T22:22:50.019Z,84.77
2023-05-21T22:25:17.379Z,84.53
2023-05-21T22:27:44.406Z,84.70
2023-05-21T22:30:11.792Z,85.06
2023-05-21T22:32:38.813Z,81.09
2023-05-21T22:35:06.533Z,79.39
2023-05-21T22:37:33.405Z,80.13
2023-05-21T22:40:00.410Z,80.41
2023-05-21T22:42:27.182Z,79.65
2023-05-21T22:44:54.005Z,78.58
2023-05-21T22:47:23.968Z,79.67
2023-05-21T22:49:53.518Z,79.70
2023-05-21T22:52:23.816Z,78.01
2023-05-21T22:54:53.894Z,77.62
2023-05-21T22:57:20.713Z,77.74
2023-05-21T22:59:47.535Z,79.39
2023-05-21T23:02:15.893Z,79.39
2023-05-21T23:04:44.646Z,80.92
2023-05-21T23:07:12.599Z,79.92
2023-05-21T23:09:39.820Z,78.82
2023-05-21T23:12:07.394Z,79.69
2023-05-21T23:14:34.230Z,79.66
2023-05-21T23:17:04.932Z,79.71
2023-05-21T23:19:33.011Z,80.57
2023-05-21T23:22:00.506Z,81.60
2023-05-21T23:24:29.715Z,79.83
2023-05-21T23:27:02.938Z,79.03
2023-05-21T23:29:30.841Z,79.37
2023-05-21T23:31:58.081Z,81.42
2023-05-21T23:34:25.047Z,82.32
2023-05-21T23:36:52.555Z,83.12
2023-05-21T23:39:19.724Z,82.02
2023-05-21T23:41:46.581Z,82.99
2023-05-21T23:44:13.582Z,80.59
2023-05-21T23:46:40.480Z,80.30
2023-05-21T23:49:07.271Z,82.29
2023-05-21T23:51:34.334Z,84.84
2023-05-21T23:54:01.388Z,87.28
2023-05-21T23:56:28.477Z,87.39
2023-05-21T23:58:55.850Z,87.12
